sensor_id;sensor_type;location;lat;lon;timestamp;temperature;humidity
782;DHT22;374;52.568;13.402;2023-02-01T00:01:20;4.70;99.90
782;DHT22;374;52.568;13.402;2023-02-01T00:03:45;4.70;99.90
782;DHT22;374;52.568;13.402;2023-02-01T00:06:10;4.80;99.90
782;DHT22;374;52.568;13.402;2023-02-01T00:08:36;4.80;99.90
782;DHT22;374;52.568;13.402;2023-02-01T00:11:07;4.80;99.90
782;DHT22;374;52.568;13.402;2023-02-01T00:13:34;4.80;99.90
782;DHT22;374;52.568;13.402;2023-02-01T00:16:15;4.70;99.90
782;DHT22;374;52.568;13.402;2023-02-01T00:18:42;4.70;99.90
782;DHT22;374;52.568;13.402;2023-02-01T00:21:08;4.70;99.90
782;DHT22;374;52.568;13.402;2023-02-01T00:23:35;4.70;99.90
782;DHT22;374;52.568;13.402;2023-02-01T00:26:02;4.70;99.90
782;DHT22;374;52.568;13.402;2023-02-01T00:28:28;4.70;99.90
782;DHT22;374;52.568;13.402;2023-02-01T00:31:01;4.70;99.90
782;DHT22;374;52.568;13.402;2023-02-01T00:33:28;4.70;99.90
782;DHT22;374;52.568;13.402;2023-02-01T00:35:58;4.70;99.90
782;DHT22;374;52.568;13.402;2023-02-01T00:38:27;4.70;99.90
782;DHT22;374;52.568;13.402;2023-02-01T00:40:53;4.70;99.90
782;DHT22;374;52.568;13.402;2023-02-01T00:43:21;4.70;99.90
782;DHT22;374;52.568;13.402;2023-02-01T00:45:46;4.70;99.90
782;DHT22;374;52.568;13.402;2023-02-01T00:48:12;4.60;99.90
782;DHT22;374;52.568;13.402;2023-02-01T00:50:44;4.60;99.90
782;DHT22;374;52.568;13.402;2023-02-01T00:53:10;4.60;99.90
782;DHT22;374;52.568;13.402;2023-02-01T00:55:36;4.70;99.90
782;DHT22;374;52.568;13.402;2023-02-01T00:58:02;4.70;99.90
782;DHT22;374;52.568;13.402;2023-02-01T01:00:27;4.70;99.90
782;DHT22;374;52.568;13.402;2023-02-01T01:02:53;4.70;99.90
782;DHT22;374;52.568;13.402;2023-02-01T01:05:19;4.70;99.90
782;DHT22;374;52.568;13.402;2023-02-01T01:07:44;4.70;99.90
782;DHT22;374;52.568;13.402;2023-02-01T01:10:10;4.70;99.90
782;DHT22;374;52.568;13.402;2023-02-01T01:12:35;4.70;99.90
782;DHT22;374;52.568;13.402;2023-02-01T01:15:01;4.70;99.90
782;DHT22;374;52.568;13.402;2023-02-01T01:17:26;4.70;99.90
782;DHT22;374;52.568;13.402;2023-02-01T01:19:52;4.70;99.90
782;DHT22;374;52.568;13.402;2023-02-01T01:22:17;4.70;99.90
782;DHT22;374;52.568;13.402;2023-02-01T01:24:43;4.60;99.90
782;DHT22;374;52.568;13.402;2023-02-01T01:27:09;4.60;99.90
782;DHT22;374;52.568;13.402;2023-02-01T01:29:34;4.60;99.90
782;DHT22;374;52.568;13.402;2023-02-01T01:32:00;4.60;99.90
782;DHT22;374;52.568;13.402;2023-02-01T01:34:25;4.60;99.90
782;DHT22;374;52.568;13.402;2023-02-01T01:36:51;4.60;99.90
782;DHT22;374;52.568;13.402;2023-02-01T01:39:16;4.60;99.90
782;DHT22;374;52.568;13.402;2023-02-01T01:41:42;4.60;99.90
782;DHT22;374;52.568;13.402;2023-02-01T01:47:12;4.60;99.90
782;DHT22;374;52.568;13.402;2023-02-01T01:49:39;4.60;99.90
782;DHT22;374;52.568;13.402;2023-02-01T01:52:05;4.60;99.90
782;DHT22;374;52.568;13.402;2023-02-01T01:54:34;4.60;99.90
782;DHT22;374;52.568;13.402;2023-02-01T01:57:05;4.60;99.90
782;DHT22;374;52.568;13.402;2023-02-01T01:59:32;4.60;99.90
782;DHT22;374;52.568;13.402;2023-02-01T02:01:59;4.60;99.90
782;DHT22;374;52.568;13.402;2023-02-01T02:04:25;4.60;99.90
782;DHT22;374;52.568;13.402;2023-02-01T02:07:11;4.60;99.90
782;DHT22;374;52.568;13.402;2023-02-01T02:09:38;4.60;99.90
782;DHT22;374;52.568;13.402;2023-02-01T02:12:04;4.60;99.90
782;DHT22;374;52.568;13.402;2023-02-01T02:14:30;4.60;99.90
782;DHT22;374;52.568;13.402;2023-02-01T02:25:46;4.60;99.90
782;DHT22;374;52.568;13.402;2023-02-01T02:28:34;4.70;99.90
782;DHT22;374;52.568;13.402;2023-02-01T02:34:22;4.70;99.90
782;DHT22;374;52.568;13.402;2023-02-01T02:37:16;4.70;99.90
782;DHT22;374;52.568;13.402;2023-02-01T02:42:55;4.70;99.90
782;DHT22;374;52.568;13.402;2023-02-01T02:51:37;4.70;99.90
782;DHT22;374;52.568;13.402;2023-02-01T02:54:26;4.70;99.90
782;DHT22;374;52.568;13.402;2023-02-01T02:57:14;4.70;99.90
782;DHT22;374;52.568;13.402;2023-02-01T03:00:02;4.70;99.90
782;DHT22;374;52.568;13.402;2023-02-01T03:02:48;4.70;99.90
782;DHT22;374;52.568;13.402;2023-02-01T03:05:37;4.70;99.90
782;DHT22;374;52.568;13.402;2023-02-01T03:08:11;4.70;99.90
782;DHT22;374;52.568;13.402;2023-02-01T03:11:00;4.70;99.90
782;DHT22;374;52.568;13.402;2023-02-01T03:13:49;4.70;99.90
782;DHT22;374;52.568;13.402;2023-02-01T03:16:34;4.70;99.90
782;DHT22;374;52.568;13.402;2023-02-01T03:19:05;4.70;99.90
782;DHT22;374;52.568;13.402;2023-02-01T03:27:20;4.70;99.90
782;DHT22;374;52.568;13.402;2023-02-01T03:29:51;4.80;99.90
782;DHT22;374;52.568;13.402;2023-02-01T03:32:17;4.70;99.90
782;DHT22;374;52.568;13.402;2023-02-01T03:34:44;4.70;99.90
782;DHT22;374;52.568;13.402;2023-02-01T03:37:12;4.70;99.90
782;DHT22;374;52.568;13.402;2023-02-01T03:42:27;4.70;99.90
782;DHT22;374;52.568;13.402;2023-02-01T03:45:22;4.70;99.90
782;DHT22;374;52.568;13.402;2023-02-01T03:47:51;4.70;99.90
782;DHT22;374;52.568;13.402;2023-02-01T03:50:20;4.70;99.90
782;DHT22;374;52.568;13.402;2023-02-01T03:53:11;4.70;99.90
782;DHT22;374;52.568;13.402;2023-02-01T03:55:41;4.70;99.90
782;DHT22;374;52.568;13.402;2023-02-01T04:00:35;4.70;99.90
782;DHT22;374;52.568;13.402;2023-02-01T04:03:02;4.70;99.90
782;DHT22;374;52.568;13.402;2023-02-01T04:05:29;4.70;99.90
782;DHT22;374;52.568;13.402;2023-02-01T04:07:55;4.70;99.90
782;DHT22;374;52.568;13.402;2023-02-01T04:10:21;4.80;99.90
782;DHT22;374;52.568;13.402;2023-02-01T04:12:46;4.80;99.90
782;DHT22;374;52.568;13.402;2023-02-01T04:15:12;4.80;99.90
782;DHT22;374;52.568;13.402;2023-02-01T04:17:37;4.80;99.90
782;DHT22;374;52.568;13.402;2023-02-01T04:20:03;4.80;99.90
782;DHT22;374;52.568;13.402;2023-02-01T04:22:30;4.80;99.90
782;DHT22;374;52.568;13.402;2023-02-01T04:24:55;4.80;99.90
782;DHT22;374;52.568;13.402;2023-02-01T04:27:21;4.90;99.90
782;DHT22;374;52.568;13.402;2023-02-01T04:29:47;4.90;99.90
782;DHT22;374;52.568;13.402;2023-02-01T04:32:15;4.90;99.90
782;DHT22;374;52.568;13.402;2023-02-01T04:34:41;4.90;99.90
782;DHT22;374;52.568;13.402;2023-02-01T04:37:06;4.90;99.90
782;DHT22;374;52.568;13.402;2023-02-01T04:39:32;4.90;99.90
782;DHT22;374;52.568;13.402;2023-02-01T04:41:58;4.90;99.90
782;DHT22;374;52.568;13.402;2023-02-01T04:44:24;4.90;99.90
782;DHT22;374;52.568;13.402;2023-02-01T04:46:49;5.00;99.90
782;DHT22;374;52.568;13.402;2023-02-01T04:49:15;5.00;99.90
782;DHT22;374;52.568;13.402;2023-02-01T04:51:41;5.00;99.90
782;DHT22;374;52.568;13.402;2023-02-01T04:54:08;5.00;99.90
782;DHT22;374;52.568;13.402;2023-02-01T04:56:34;5.00;99.90
782;DHT22;374;52.568;13.402;2023-02-01T04:59:02;5.00;99.90
782;DHT22;374;52.568;13.402;2023-02-01T05:01:28;5.00;99.90
782;DHT22;374;52.568;13.402;2023-02-01T05:03:54;5.00;99.90
782;DHT22;374;52.568;13.402;2023-02-01T05:06:20;5.10;99.90
782;DHT22;374;52.568;13.402;2023-02-01T05:08:45;5.10;99.90
782;DHT22;374;52.568;13.402;2023-02-01T05:11:11;5.10;99.90
782;DHT22;374;52.568;13.402;2023-02-01T05:13:56;5.10;99.90
782;DHT22;374;52.568;13.402;2023-02-01T05:16:41;5.10;99.90
782;DHT22;374;52.568;13.402;2023-02-01T05:19:06;5.20;99.90
782;DHT22;374;52.568;13.402;2023-02-01T05:21:31;5.10;99.90
782;DHT22;374;52.568;13.402;2023-02-01T05:23:57;5.10;99.90
782;DHT22;374;52.568;13.402;2023-02-01T05:26:44;5.20;99.90
782;DHT22;374;52.568;13.402;2023-02-01T05:29:10;5.20;99.90
782;DHT22;374;52.568;13.402;2023-02-01T05:31:36;5.20;99.90
782;DHT22;374;52.568;13.402;2023-02-01T05:34:02;5.10;99.90
782;DHT22;374;52.568;13.402;2023-02-01T05:36:28;5.20;99.90
782;DHT22;374;52.568;13.402;2023-02-01T05:38:53;5.20;99.90
782;DHT22;374;52.568;13.402;2023-02-01T05:41:19;5.20;99.90
782;DHT22;374;52.568;13.402;2023-02-01T05:43:44;5.20;99.90
782;DHT22;374;52.568;13.402;2023-02-01T05:46:10;5.20;99.90
782;DHT22;374;52.568;13.402;2023-02-01T05:48:38;5.30;99.90
782;DHT22;374;52.568;13.402;2023-02-01T05:51:04;5.30;99.90
782;DHT22;374;52.568;13.402;2023-02-01T05:53:29;5.30;99.90
782;DHT22;374;52.568;13.402;2023-02-01T05:55:54;5.30;99.90
782;DHT22;374;52.568;13.402;2023-02-01T05:58:20;5.30;99.90
782;DHT22;374;52.568;13.402;2023-02-01T06:00:45;5.30;99.90
782;DHT22;374;52.568;13.402;2023-02-01T06:03:11;5.30;99.90
782;DHT22;374;52.568;13.402;2023-02-01T06:05:36;5.30;99.90
782;DHT22;374;52.568;13.402;2023-02-01T06:08:02;5.30;99.90
782;DHT22;374;52.568;13.402;2023-02-01T06:10:28;5.30;99.90
782;DHT22;374;52.568;13.402;2023-02-01T06:12:53;5.30;99.90
782;DHT22;374;52.568;13.402;2023-02-01T06:15:19;5.30;99.90
782;DHT22;374;52.568;13.402;2023-02-01T06:17:45;5.40;99.90
782;DHT22;374;52.568;13.402;2023-02-01T06:20:12;5.40;99.90
782;DHT22;374;52.568;13.402;2023-02-01T06:22:38;5.40;99.90
782;DHT22;374;52.568;13.402;2023-02-01T06:25:05;5.30;99.90
782;DHT22;374;52.568;13.402;2023-02-01T06:27:32;5.40;99.90
782;DHT22;374;52.568;13.402;2023-02-01T06:29:58;5.40;99.90
782;DHT22;374;52.568;13.402;2023-02-01T06:32:24;5.40;99.90
782;DHT22;374;52.568;13.402;2023-02-01T06:34:49;5.30;99.90
782;DHT22;374;52.568;13.402;2023-02-01T06:37:15;5.30;99.90
782;DHT22;374;52.568;13.402;2023-02-01T06:39:43;5.30;99.90
782;DHT22;374;52.568;13.402;2023-02-01T06:42:08;5.30;99.90
782;DHT22;374;52.568;13.402;2023-02-01T06:44:34;5.30;99.90
782;DHT22;374;52.568;13.402;2023-02-01T06:46:59;5.30;99.90
782;DHT22;374;52.568;13.402;2023-02-01T06:49:25;5.30;99.90
782;DHT22;374;52.568;13.402;2023-02-01T06:51:50;5.30;99.90
782;DHT22;374;52.568;13.402;2023-02-01T06:54:16;5.30;99.90
782;DHT22;374;52.568;13.402;2023-02-01T06:56:41;5.30;99.90
782;DHT22;374;52.568;13.402;2023-02-01T06:59:07;5.30;99.90
782;DHT22;374;52.568;13.402;2023-02-01T07:01:33;5.30;99.90
782;DHT22;374;52.568;13.402;2023-02-01T07:03:59;5.30;99.90
782;DHT22;374;52.568;13.402;2023-02-01T07:06:26;5.40;99.90
782;DHT22;374;52.568;13.402;2023-02-01T07:08:52;5.40;99.90
782;DHT22;374;52.568;13.402;2023-02-01T07:11:21;5.30;99.90
782;DHT22;374;52.568;13.402;2023-02-01T07:13:46;5.30;99.90
782;DHT22;374;52.568;13.402;2023-02-01T07:16:14;5.30;99.90
782;DHT22;374;52.568;13.402;2023-02-01T07:18:39;5.40;99.90
782;DHT22;374;52.568;13.402;2023-02-01T07:21:05;5.40;99.90
782;DHT22;374;52.568;13.402;2023-02-01T07:23:31;5.40;99.90
782;DHT22;374;52.568;13.402;2023-02-01T07:25:58;5.40;99.90
782;DHT22;374;52.568;13.402;2023-02-01T07:28:25;5.40;99.90
782;DHT22;374;52.568;13.402;2023-02-01T07:30:51;5.40;99.90
782;DHT22;374;52.568;13.402;2023-02-01T07:33:21;5.40;99.90
782;DHT22;374;52.568;13.402;2023-02-01T07:35:47;5.40;99.90
782;DHT22;374;52.568;13.402;2023-02-01T07:38:13;5.30;99.90
782;DHT22;374;52.568;13.402;2023-02-01T07:40:39;5.40;99.90
782;DHT22;374;52.568;13.402;2023-02-01T07:43:04;5.40;99.90
782;DHT22;374;52.568;13.402;2023-02-01T07:45:31;5.40;99.90
782;DHT22;374;52.568;13.402;2023-02-01T07:47:57;5.40;99.90
782;DHT22;374;52.568;13.402;2023-02-01T07:50:22;5.40;99.90
782;DHT22;374;52.568;13.402;2023-02-01T07:52:48;5.40;99.90
782;DHT22;374;52.568;13.402;2023-02-01T07:55:13;5.40;99.90
782;DHT22;374;52.568;13.402;2023-02-01T07:57:39;5.40;99.90
782;DHT22;374;52.568;13.402;2023-02-01T08:00:05;5.40;99.90
782;DHT22;374;52.568;13.402;2023-02-01T08:02:49;5.40;99.90
782;DHT22;374;52.568;13.402;2023-02-01T08:05:15;5.30;99.90
782;DHT22;374;52.568;13.402;2023-02-01T08:07:40;5.30;99.90
782;DHT22;374;52.568;13.402;2023-02-01T08:10:06;5.30;99.90
782;DHT22;374;52.568;13.402;2023-02-01T08:12:36;5.30;99.90
782;DHT22;374;52.568;13.402;2023-02-01T08:15:02;5.30;99.90
782;DHT22;374;52.568;13.402;2023-02-01T08:17:28;5.30;99.90
782;DHT22;374;52.568;13.402;2023-02-01T08:19:54;5.20;99.90
782;DHT22;374;52.568;13.402;2023-02-01T08:22:20;5.20;99.90
782;DHT22;374;52.568;13.402;2023-02-01T08:24:48;5.20;99.90
782;DHT22;374;52.568;13.402;2023-02-01T08:27:13;5.20;99.90
782;DHT22;374;52.568;13.402;2023-02-01T08:29:41;5.20;99.90
782;DHT22;374;52.568;13.402;2023-02-01T08:32:07;5.20;99.90
782;DHT22;374;52.568;13.402;2023-02-01T08:34:32;5.20;99.90
782;DHT22;374;52.568;13.402;2023-02-01T08:36:58;5.20;99.90
782;DHT22;374;52.568;13.402;2023-02-01T08:39:25;5.20;99.90
782;DHT22;374;52.568;13.402;2023-02-01T08:41:50;5.10;99.90
782;DHT22;374;52.568;13.402;2023-02-01T08:44:34;5.10;99.90
782;DHT22;374;52.568;13.402;2023-02-01T08:47:00;5.10;99.90
782;DHT22;374;52.568;13.402;2023-02-01T08:49:26;5.10;99.90
782;DHT22;374;52.568;13.402;2023-02-01T08:51:51;5.10;99.90
782;DHT22;374;52.568;13.402;2023-02-01T08:54:16;5.10;99.90
782;DHT22;374;52.568;13.402;2023-02-01T08:56:42;5.10;99.90
782;DHT22;374;52.568;13.402;2023-02-01T08:59:07;5.00;99.90
782;DHT22;374;52.568;13.402;2023-02-01T09:01:33;5.00;99.90
782;DHT22;374;52.568;13.402;2023-02-01T09:03:58;5.00;99.90
782;DHT22;374;52.568;13.402;2023-02-01T09:06:24;5.00;99.90
782;DHT22;374;52.568;13.402;2023-02-01T09:08:49;5.00;99.90
782;DHT22;374;52.568;13.402;2023-02-01T09:11:16;5.00;99.90
782;DHT22;374;52.568;13.402;2023-02-01T09:13:44;5.00;99.90
782;DHT22;374;52.568;13.402;2023-02-01T09:16:10;5.10;99.90
782;DHT22;374;52.568;13.402;2023-02-01T09:18:35;5.10;99.90
782;DHT22;374;52.568;13.402;2023-02-01T09:21:06;5.10;99.90
782;DHT22;374;52.568;13.402;2023-02-01T09:23:39;5.10;99.90
782;DHT22;374;52.568;13.402;2023-02-01T09:26:07;5.10;99.90
782;DHT22;374;52.568;13.402;2023-02-01T09:28:33;5.20;99.90
782;DHT22;374;52.568;13.402;2023-02-01T09:30:59;5.20;99.90
782;DHT22;374;52.568;13.402;2023-02-01T09:33:27;5.20;99.90
782;DHT22;374;52.568;13.402;2023-02-01T09:35:57;5.20;99.90
782;DHT22;374;52.568;13.402;2023-02-01T09:38:23;5.20;99.90
782;DHT22;374;52.568;13.402;2023-02-01T09:40:51;5.20;99.90
782;DHT22;374;52.568;13.402;2023-02-01T09:43:41;5.20;99.90
782;DHT22;374;52.568;13.402;2023-02-01T09:48:47;5.20;99.90
782;DHT22;374;52.568;13.402;2023-02-01T09:51:23;5.20;99.90
782;DHT22;374;52.568;13.402;2023-02-01T09:54:01;5.20;99.90
782;DHT22;374;52.568;13.402;2023-02-01T09:56:35;5.10;99.90
782;DHT22;374;52.568;13.402;2023-02-01T10:01:54;5.20;99.90
782;DHT22;374;52.568;13.402;2023-02-01T10:04:19;5.20;99.90
782;DHT22;374;52.568;13.402;2023-02-01T10:06:51;5.10;99.90
782;DHT22;374;52.568;13.402;2023-02-01T10:09:42;5.10;99.90
782;DHT22;374;52.568;13.402;2023-02-01T10:17:50;5.10;99.90
782;DHT22;374;52.568;13.402;2023-02-01T10:20:31;5.10;99.90
782;DHT22;374;52.568;13.402;2023-02-01T10:26:24;5.00;99.90
782;DHT22;374;52.568;13.402;2023-02-01T10:28:53;5.10;99.90
782;DHT22;374;52.568;13.402;2023-02-01T10:31:24;5.10;99.90
782;DHT22;374;52.568;13.402;2023-02-01T10:34:07;5.10;99.90
782;DHT22;374;52.568;13.402;2023-02-01T10:36:44;5.10;99.90
782;DHT22;374;52.568;13.402;2023-02-01T10:39:15;5.10;99.90
782;DHT22;374;52.568;13.402;2023-02-01T10:41:41;5.20;99.90
782;DHT22;374;52.568;13.402;2023-02-01T10:44:16;5.20;99.90
782;DHT22;374;52.568;13.402;2023-02-01T10:46:42;5.20;99.90
782;DHT22;374;52.568;13.402;2023-02-01T10:49:13;5.30;99.90
782;DHT22;374;52.568;13.402;2023-02-01T10:51:52;5.30;99.90
782;DHT22;374;52.568;13.402;2023-02-01T10:54:21;5.40;99.90
782;DHT22;374;52.568;13.402;2023-02-01T10:56:49;5.40;99.90
782;DHT22;374;52.568;13.402;2023-02-01T10:59:20;5.40;99.90
782;DHT22;374;52.568;13.402;2023-02-01T11:01:48;5.40;99.90
782;DHT22;374;52.568;13.402;2023-02-01T11:04:18;5.30;99.90
782;DHT22;374;52.568;13.402;2023-02-01T11:06:47;5.30;99.90
782;DHT22;374;52.568;13.402;2023-02-01T11:09:32;5.30;99.90
782;DHT22;374;52.568;13.402;2023-02-01T11:12:00;5.30;99.90
782;DHT22;374;52.568;13.402;2023-02-01T11:14:34;5.30;99.90
782;DHT22;374;52.568;13.402;2023-02-01T11:17:20;5.40;99.90
782;DHT22;374;52.568;13.402;2023-02-01T11:20:08;5.30;99.90
782;DHT22;374;52.568;13.402;2023-02-01T11:22:37;5.40;99.90
782;DHT22;374;52.568;13.402;2023-02-01T11:25:13;5.40;99.90
782;DHT22;374;52.568;13.402;2023-02-01T11:27:39;5.50;99.90
782;DHT22;374;52.568;13.402;2023-02-01T11:30:05;5.50;99.90
782;DHT22;374;52.568;13.402;2023-02-01T11:32:31;5.50;99.90
782;DHT22;374;52.568;13.402;2023-02-01T11:35:01;5.60;99.90
782;DHT22;374;52.568;13.402;2023-02-01T11:37:31;5.60;99.90
782;DHT22;374;52.568;13.402;2023-02-01T11:40:01;5.70;99.90
782;DHT22;374;52.568;13.402;2023-02-01T11:42:28;5.70;99.90
782;DHT22;374;52.568;13.402;2023-02-01T11:45:31;5.80;99.90
782;DHT22;374;52.568;13.402;2023-02-01T11:47:59;5.80;99.90
782;DHT22;374;52.568;13.402;2023-02-01T11:56:14;5.80;99.90
782;DHT22;374;52.568;13.402;2023-02-01T12:01:50;5.80;99.90
782;DHT22;374;52.568;13.402;2023-02-01T12:04:55;5.90;99.90
782;DHT22;374;52.568;13.402;2023-02-01T12:07:49;5.90;99.90
782;DHT22;374;52.568;13.402;2023-02-01T12:10:28;5.90;99.90
782;DHT22;374;52.568;13.402;2023-02-01T12:13:12;6.00;99.90
782;DHT22;374;52.568;13.402;2023-02-01T12:16:00;6.00;99.90
782;DHT22;374;52.568;13.402;2023-02-01T12:21:47;6.10;99.90
782;DHT22;374;52.568;13.402;2023-02-01T12:25:45;6.10;99.90
782;DHT22;374;52.568;13.402;2023-02-01T12:27:57;6.10;99.90
782;DHT22;374;52.568;13.402;2023-02-01T12:30:44;6.10;99.90
782;DHT22;374;52.568;13.402;2023-02-01T12:36:31;6.10;99.90
782;DHT22;374;52.568;13.402;2023-02-01T12:39:09;6.10;99.90
782;DHT22;374;52.568;13.402;2023-02-01T12:47:20;6.10;99.90
782;DHT22;374;52.568;13.402;2023-02-01T12:52:50;6.10;99.90
782;DHT22;374;52.568;13.402;2023-02-01T12:58:15;6.10;99.90
782;DHT22;374;52.568;13.402;2023-02-01T13:03:40;6.10;99.90
782;DHT22;374;52.568;13.402;2023-02-01T13:06:12;6.00;99.90
782;DHT22;374;52.568;13.402;2023-02-01T13:08:48;6.10;99.90
782;DHT22;374;52.568;13.402;2023-02-01T13:11:26;6.10;99.90
782;DHT22;374;52.568;13.402;2023-02-01T13:14:00;6.00;99.90
782;DHT22;374;52.568;13.402;2023-02-01T13:16:31;5.90;99.90
782;DHT22;374;52.568;13.402;2023-02-01T13:19:09;5.80;99.90
782;DHT22;374;52.568;13.402;2023-02-01T13:21:40;5.70;99.90
782;DHT22;374;52.568;13.402;2023-02-01T13:26:53;5.50;99.90
782;DHT22;374;52.568;13.402;2023-02-01T13:29:19;5.50;99.90
782;DHT22;374;52.568;13.402;2023-02-01T13:32:15;5.50;99.90
782;DHT22;374;52.568;13.402;2023-02-01T13:35:35;5.50;99.90
782;DHT22;374;52.568;13.402;2023-02-01T13:38:14;5.50;99.90
782;DHT22;374;52.568;13.402;2023-02-01T13:43:27;6.10;99.90
782;DHT22;374;52.568;13.402;2023-02-01T13:45:57;5.50;99.90
782;DHT22;374;52.568;13.402;2023-02-01T13:51:45;5.80;99.90
782;DHT22;374;52.568;13.402;2023-02-01T13:54:36;5.90;99.90
782;DHT22;374;52.568;13.402;2023-02-01T13:57:03;5.90;99.90
782;DHT22;374;52.568;13.402;2023-02-01T14:05:09;6.00;99.90
782;DHT22;374;52.568;13.402;2023-02-01T14:07:35;6.10;99.90
782;DHT22;374;52.568;13.402;2023-02-01T14:13:34;6.00;99.90
782;DHT22;374;52.568;13.402;2023-02-01T14:21:19;6.10;99.90
782;DHT22;374;52.568;13.402;2023-02-01T14:26:24;6.00;99.90
782;DHT22;374;52.568;13.402;2023-02-01T14:28:55;6.00;99.90
782;DHT22;374;52.568;13.402;2023-02-01T14:34:20;5.90;99.90
782;DHT22;374;52.568;13.402;2023-02-01T14:36:52;5.90;99.90
782;DHT22;374;52.568;13.402;2023-02-01T14:41:57;5.90;99.90
782;DHT22;374;52.568;13.402;2023-02-01T14:44:27;5.90;99.90
782;DHT22;374;52.568;13.402;2023-02-01T14:47:11;5.90;99.90
782;DHT22;374;52.568;13.402;2023-02-01T14:52:44;5.90;99.90
782;DHT22;374;52.568;13.402;2023-02-01T14:55:24;5.90;99.90
782;DHT22;374;52.568;13.402;2023-02-01T14:57:53;5.90;99.90
782;DHT22;374;52.568;13.402;2023-02-01T15:00:24;5.90;99.90
782;DHT22;374;52.568;13.402;2023-02-01T15:02:51;5.90;99.90
782;DHT22;374;52.568;13.402;2023-02-01T15:05:33;6.00;99.90
782;DHT22;374;52.568;13.402;2023-02-01T15:08:08;5.90;99.90
782;DHT22;374;52.568;13.402;2023-02-01T15:10:43;6.00;99.90
782;DHT22;374;52.568;13.402;2023-02-01T15:13:19;5.90;99.90
782;DHT22;374;52.568;13.402;2023-02-01T15:15:59;6.00;99.90
782;DHT22;374;52.568;13.402;2023-02-01T15:18:25;6.00;99.90
782;DHT22;374;52.568;13.402;2023-02-01T15:20:57;6.00;99.90
782;DHT22;374;52.568;13.402;2023-02-01T15:23:23;5.90;99.90
782;DHT22;374;52.568;13.402;2023-02-01T15:25:49;5.90;99.90
782;DHT22;374;52.568;13.402;2023-02-01T15:28:15;5.90;99.90
782;DHT22;374;52.568;13.402;2023-02-01T15:30:54;5.90;99.90
782;DHT22;374;52.568;13.402;2023-02-01T15:33:20;5.80;99.90
782;DHT22;374;52.568;13.402;2023-02-01T15:35:51;5.80;99.90
782;DHT22;374;52.568;13.402;2023-02-01T15:43:23;5.70;99.90
782;DHT22;374;52.568;13.402;2023-02-01T15:45:49;5.70;99.90
782;DHT22;374;52.568;13.402;2023-02-01T15:48:22;5.70;99.90
782;DHT22;374;52.568;13.402;2023-02-01T15:50:49;5.60;99.90
782;DHT22;374;52.568;13.402;2023-02-01T15:53:21;5.60;99.90
782;DHT22;374;52.568;13.402;2023-02-01T15:55:52;5.60;99.90
782;DHT22;374;52.568;13.402;2023-02-01T15:58:23;5.50;99.90
782;DHT22;374;52.568;13.402;2023-02-01T16:00:57;5.30;99.90
782;DHT22;374;52.568;13.402;2023-02-01T16:03:39;5.30;99.90
782;DHT22;374;52.568;13.402;2023-02-01T16:06:28;5.20;99.90
782;DHT22;374;52.568;13.402;2023-02-01T16:11:26;5.00;99.90
782;DHT22;374;52.568;13.402;2023-02-01T16:13:53;5.00;99.90
782;DHT22;374;52.568;13.402;2023-02-01T16:16:18;5.00;99.90
782;DHT22;374;52.568;13.402;2023-02-01T16:18:44;4.80;99.90
782;DHT22;374;52.568;13.402;2023-02-01T16:21:10;4.90;99.90
782;DHT22;374;52.568;13.402;2023-02-01T16:23:36;4.90;99.90
782;DHT22;374;52.568;13.402;2023-02-01T16:26:02;4.80;99.90
782;DHT22;374;52.568;13.402;2023-02-01T16:28:28;4.80;99.90
782;DHT22;374;52.568;13.402;2023-02-01T16:30:54;4.80;99.90
782;DHT22;374;52.568;13.402;2023-02-01T16:33:20;5.10;99.90
782;DHT22;374;52.568;13.402;2023-02-01T16:35:50;4.70;99.90
782;DHT22;374;52.568;13.402;2023-02-01T16:38:20;4.70;99.90
782;DHT22;374;52.568;13.402;2023-02-01T16:40:48;4.70;99.90
782;DHT22;374;52.568;13.402;2023-02-01T16:43:21;4.70;99.90
782;DHT22;374;52.568;13.402;2023-02-01T16:45:48;4.60;99.90
782;DHT22;374;52.568;13.402;2023-02-01T16:50:46;4.60;99.90
782;DHT22;374;52.568;13.402;2023-02-01T16:53:14;4.60;99.90
782;DHT22;374;52.568;13.402;2023-02-01T16:55:41;4.60;99.90
782;DHT22;374;52.568;13.402;2023-02-01T16:58:08;4.60;99.90
782;DHT22;374;52.568;13.402;2023-02-01T17:00:34;4.50;99.90
782;DHT22;374;52.568;13.402;2023-02-01T17:03:02;4.50;99.90
782;DHT22;374;52.568;13.402;2023-02-01T17:05:31;4.50;99.90
782;DHT22;374;52.568;13.402;2023-02-01T17:08:01;4.50;99.90
782;DHT22;374;52.568;13.402;2023-02-01T17:10:29;4.50;99.90
782;DHT22;374;52.568;13.402;2023-02-01T17:12:55;4.50;99.90
782;DHT22;374;52.568;13.402;2023-02-01T17:15:23;4.50;99.90
782;DHT22;374;52.568;13.402;2023-02-01T17:17:49;4.50;99.90
782;DHT22;374;52.568;13.402;2023-02-01T17:20:21;4.60;99.90
782;DHT22;374;52.568;13.402;2023-02-01T17:22:48;4.50;99.90
782;DHT22;374;52.568;13.402;2023-02-01T17:25:19;4.50;99.90
782;DHT22;374;52.568;13.402;2023-02-01T17:27:45;4.50;99.90
782;DHT22;374;52.568;13.402;2023-02-01T17:30:12;4.60;99.90
782;DHT22;374;52.568;13.402;2023-02-01T17:32:38;4.60;99.90
782;DHT22;374;52.568;13.402;2023-02-01T17:35:05;4.60;99.90
782;DHT22;374;52.568;13.402;2023-02-01T17:37:33;4.60;99.90
782;DHT22;374;52.568;13.402;2023-02-01T17:39:59;4.60;99.90
782;DHT22;374;52.568;13.402;2023-02-01T17:42:27;4.60;99.90
782;DHT22;374;52.568;13.402;2023-02-01T17:45:10;4.60;99.90
782;DHT22;374;52.568;13.402;2023-02-01T17:47:36;4.60;99.90
782;DHT22;374;52.568;13.402;2023-02-01T17:50:03;4.60;99.90
782;DHT22;374;52.568;13.402;2023-02-01T17:52:28;4.60;99.90
782;DHT22;374;52.568;13.402;2023-02-01T17:54:54;4.60;99.90
782;DHT22;374;52.568;13.402;2023-02-01T17:57:20;4.70;99.90
782;DHT22;374;52.568;13.402;2023-02-01T17:59:45;4.60;99.90
782;DHT22;374;52.568;13.402;2023-02-01T18:02:18;4.70;99.90
782;DHT22;374;52.568;13.402;2023-02-01T18:04:44;4.70;99.90
782;DHT22;374;52.568;13.402;2023-02-01T18:07:10;4.70;99.90
782;DHT22;374;52.568;13.402;2023-02-01T18:09:35;4.70;99.90
782;DHT22;374;52.568;13.402;2023-02-01T18:12:03;4.70;99.90
782;DHT22;374;52.568;13.402;2023-02-01T18:14:29;4.70;99.90
782;DHT22;374;52.568;13.402;2023-02-01T18:16:54;4.70;99.90
782;DHT22;374;52.568;13.402;2023-02-01T18:19:20;4.70;99.90
782;DHT22;374;52.568;13.402;2023-02-01T18:21:45;4.70;99.90
782;DHT22;374;52.568;13.402;2023-02-01T18:24:13;4.80;99.90
782;DHT22;374;52.568;13.402;2023-02-01T18:26:39;4.80;99.90
782;DHT22;374;52.568;13.402;2023-02-01T18:29:05;4.80;99.90
782;DHT22;374;52.568;13.402;2023-02-01T18:31:31;4.80;99.90
782;DHT22;374;52.568;13.402;2023-02-01T18:33:58;4.80;99.90
782;DHT22;374;52.568;13.402;2023-02-01T18:36:24;4.80;99.90
782;DHT22;374;52.568;13.402;2023-02-01T18:38:50;4.80;99.90
782;DHT22;374;52.568;13.402;2023-02-01T18:41:19;4.80;99.90
782;DHT22;374;52.568;13.402;2023-02-01T18:43:46;4.80;99.90
782;DHT22;374;52.568;13.402;2023-02-01T18:46:12;4.80;99.90
782;DHT22;374;52.568;13.402;2023-02-01T18:48:39;4.80;99.90
782;DHT22;374;52.568;13.402;2023-02-01T18:51:04;4.80;99.90
782;DHT22;374;52.568;13.402;2023-02-01T18:53:30;4.90;99.90
782;DHT22;374;52.568;13.402;2023-02-01T18:55:57;4.90;99.90